<?xml version='1.0' encoding='UTF-8'?><gpx version="1.1" creator="JPX - https://github.com/jenetics/jpx" xmlns="http://www.topografix.com/GPX/1/1"><trk><trkseg><trkpt lat="41.08266012665542" lon="9.391735653359138"><ele>121.99999999999999</ele><time>2026-03-25T17:21:31.253Z</time></trkpt><trkpt lat="41.08272216443165" lon="9.391813960003274"><ele>122.0</ele><time>2026-03-25T17:21:33.152Z</time></trkpt><trkpt lat="41.082783331478495" lon="9.391859735523475"><ele>122.0</ele><time>2026-03-25T17:21:36.002Z</time></trkpt><trkpt lat="41.082869293254646" lon="9.391900253749773"><ele>122.0</ele><time>2026-03-25T17:21:38.998Z</time></trkpt><trkpt lat="41.08294818933998" lon="9.391872786137364"><ele>121.99999999999999</ele><time>2026-03-25T17:21:41.998Z</time></trkpt><trkpt lat="41.082910639144146" lon="9.391769114043585"><ele>122.0</ele><time>2026-03-25T17:21:44.998Z</time></trkpt><trkpt lat="41.082891680401474" lon="9.391627953498539"><ele>121.99999999999999</ele><time>2026-03-25T17:21:46.998Z</time></trkpt><trkpt lat="41.08289508116463" lon="9.391517516097126"><ele>122.0</ele><time>2026-03-25T17:21:48.998Z</time></trkpt><trkpt lat="41.08293333624411" lon="9.391414782801236"><ele>122.0</ele><time>2026-03-25T17:21:54.998Z</time></trkpt><trkpt lat="41.082996613107035" lon="9.391368692672897"><ele>122.0</ele><time>2026-03-25T17:21:56.998Z</time></trkpt><trkpt lat="41.08306153146347" lon="9.39129473944941"><ele>121.99999999999999</ele><time>2026-03-25T17:21:58.998Z</time></trkpt><trkpt lat="41.083138392826505" lon="9.391237446795051"><ele>122.0</ele><time>2026-03-25T17:22:01.998Z</time></trkpt><trkpt lat="41.08321219622084" lon="9.391167929713188"><ele>119.99999999999999</ele><time>2026-03-25T17:22:03.998Z</time></trkpt><trkpt lat="41.0832753296241" lon="9.391135393003834"><ele>118.0</ele><time>2026-03-25T17:22:05.998Z</time></trkpt><trkpt lat="41.08336128043148" lon="9.391081902184643"><ele>116.0</ele><time>2026-03-25T17:22:09.998Z</time></trkpt><trkpt lat="41.083425871111" lon="9.391035283349112"><ele>114.0</ele><time>2026-03-25T17:22:11.998Z</time></trkpt><trkpt lat="41.08348578027913" lon="9.3909995016934"><ele>111.99999999999999</ele><time>2026-03-25T17:22:13.998Z</time></trkpt><trkpt lat="41.083567698074944" lon="9.390967738517915"><ele>110.0</ele><time>2026-03-25T17:22:15.998Z</time></trkpt><trkpt lat="41.08362922231221" lon="9.390948979488837"><ele>109.99999999999999</ele><time>2026-03-25T17:22:17.998Z</time></trkpt><trkpt lat="41.08369045788195" lon="9.390916017487672"><ele>110.0</ele><time>2026-03-25T17:22:19.998Z</time></trkpt><trkpt lat="41.08377799924867" lon="9.39085939710964"><ele>110.0</ele><time>2026-03-25T17:22:22.998Z</time></trkpt><trkpt lat="41.08383713650859" lon="9.390827101650224"><ele>110.0</ele><time>2026-03-25T17:22:25.998Z</time></trkpt><trkpt lat="41.08393090122146" lon="9.390807552870722"><ele>109.99999999999999</ele><time>2026-03-25T17:22:29.998Z</time></trkpt><trkpt lat="41.08399977341108" lon="9.390767935567451"><ele>110.0</ele><time>2026-03-25T17:22:32.998Z</time></trkpt><trkpt lat="41.08407720515757" lon="9.390720839103883"><ele>109.16666666666666</ele><time>2026-03-25T17:22:34.998Z</time></trkpt><trkpt lat="41.084145335866" lon="9.390643868137381"><ele>108.33333333333333</ele><time>2026-03-25T17:22:37.998Z</time></trkpt><trkpt lat="41.08422170970394" lon="9.390658734542509"><ele>107.5</ele><time>2026-03-25T17:22:40.998Z</time></trkpt><trkpt lat="41.084274028615454" lon="9.390598225923808"><ele>106.66666666666666</ele><time>2026-03-25T17:22:42.998Z</time></trkpt><trkpt lat="41.084339273214766" lon="9.390552928546125"><ele>105.83333333333333</ele><time>2026-03-25T17:22:46.998Z</time></trkpt><trkpt lat="41.08440538760589" lon="9.390481551408149"><ele>105.0</ele><time>2026-03-25T17:22:49.998Z</time></trkpt><trkpt lat="41.084446680988044" lon="9.390395763905175"><ele>103.85714285714286</ele><time>2026-03-25T17:22:51.998Z</time></trkpt><trkpt lat="41.08449817020415" lon="9.390325742448242"><ele>102.71428571428572</ele><time>2026-03-25T17:22:58.998Z</time></trkpt><trkpt lat="41.08455498088004" lon="9.390289648711489"><ele>101.57142857142857</ele><time>2026-03-25T17:23:09.998Z</time></trkpt><trkpt lat="41.08451095175189" lon="9.39022644020313"><ele>100.42857142857143</ele><time>2026-03-25T17:23:32.998Z</time></trkpt><trkpt lat="41.084453265293" lon="9.390166313858694"><ele>99.28571428571429</ele><time>2026-03-25T17:23:34.998Z</time></trkpt><trkpt lat="41.08444297349209" lon="9.390083103018203"><ele>98.14285714285714</ele><time>2026-03-25T17:23:41.998Z</time></trkpt><trkpt lat="41.08447464175349" lon="9.389995081674517"><ele>97.0</ele><time>2026-03-25T17:23:48.998Z</time></trkpt><trkpt lat="41.08451329861217" lon="9.38991785974381"><ele>97.0</ele><time>2026-03-25T17:23:54.998Z</time></trkpt><trkpt lat="41.084554312860675" lon="9.389842051286788"><ele>97.0</ele><time>2026-03-25T17:24:00.998Z</time></trkpt><trkpt lat="41.08461028571562" lon="9.389796002156029"><ele>97.0</ele><time>2026-03-25T17:24:07.998Z</time></trkpt><trkpt lat="41.084699781659886" lon="9.389748479089958"><ele>97.0</ele><time>2026-03-25T17:24:11.998Z</time></trkpt><trkpt lat="41.08479310260257" lon="9.389629010878878"><ele>97.0</ele><time>2026-03-25T17:24:13.998Z</time></trkpt><trkpt lat="41.084862875675746" lon="9.38954844290908"><ele>95.6</ele><time>2026-03-25T17:24:15.998Z</time></trkpt><trkpt lat="41.08496435546998" lon="9.389569939105831"><ele>94.19999999999999</ele><time>2026-03-25T17:24:17.998Z</time></trkpt><trkpt lat="41.08507672391912" lon="9.389632787100204"><ele>92.8</ele><time>2026-03-25T17:24:19.998Z</time></trkpt><trkpt lat="41.08514628719304" lon="9.389648150442296"><ele>91.4</ele><time>2026-03-25T17:24:20.998Z</time></trkpt><trkpt lat="41.08526586459367" lon="9.389656925745093"><ele>90.0</ele><time>2026-03-25T17:24:22.998Z</time></trkpt><trkpt lat="41.08533206691711" lon="9.389645841410132"><ele>90.0</ele><time>2026-03-25T17:24:23.998Z</time></trkpt><trkpt lat="41.08539706313692" lon="9.389614661807528"><ele>90.0</ele><time>2026-03-25T17:24:24.998Z</time></trkpt><trkpt lat="41.0854485110703" lon="9.389558533265923"><ele>90.0</ele><time>2026-03-25T17:24:25.998Z</time></trkpt><trkpt lat="41.085518854208516" lon="9.38942049149368"><ele>90.0</ele><time>2026-03-25T17:24:27.998Z</time></trkpt><trkpt lat="41.08556623455671" lon="9.389355007618482"><ele>90.0</ele><time>2026-03-25T17:24:28.998Z</time></trkpt><trkpt lat="41.08559456131915" lon="9.389266214139907"><ele>90.0</ele><time>2026-03-25T17:24:30.998Z</time></trkpt><trkpt lat="41.08556536474006" lon="9.389165859373598"><ele>90.0</ele><time>2026-03-25T17:24:32.998Z</time></trkpt><trkpt lat="41.085528746002076" lon="9.389046468768944"><ele>90.0</ele><time>2026-03-25T17:24:34.998Z</time></trkpt><trkpt lat="41.085494806378904" lon="9.388924195208084"><ele>90.0</ele><time>2026-03-25T17:24:36.998Z</time></trkpt><trkpt lat="41.085568237315016" lon="9.38883159750234"><ele>90.0</ele><time>2026-03-25T17:24:38.998Z</time></trkpt><trkpt lat="41.085622619210426" lon="9.388760409422048"><ele>90.0</ele><time>2026-03-25T17:24:39.998Z</time></trkpt><trkpt lat="41.085668290109254" lon="9.388688218401116"><ele>90.0</ele><time>2026-03-25T17:24:40.998Z</time></trkpt><trkpt lat="41.08568751903921" lon="9.388593714083457"><ele>88.5</ele><time>2026-03-25T17:24:41.998Z</time></trkpt><trkpt lat="41.08572943896556" lon="9.38850844315497"><ele>87.0</ele><time>2026-03-25T17:24:42.998Z</time></trkpt><trkpt lat="41.0857609525162" lon="9.388419953423574"><ele>85.5</ele><time>2026-03-25T17:24:43.998Z</time></trkpt><trkpt lat="41.08578359629406" lon="9.388329109211254"><ele>84.0</ele><time>2026-03-25T17:24:44.998Z</time></trkpt><trkpt lat="41.08578005956458" lon="9.388245566994968"><ele>82.5</ele><time>2026-03-25T17:24:45.998Z</time></trkpt><trkpt lat="41.085752289027724" lon="9.388138798716497"><ele>81.0</ele><time>2026-03-25T17:24:46.998Z</time></trkpt><trkpt lat="41.0856939507398" lon="9.388055279627476"><ele>78.39999999999999</ele><time>2026-03-25T17:24:47.998Z</time></trkpt><trkpt lat="41.08564804124092" lon="9.387951815230311"><ele>75.8</ele><time>2026-03-25T17:24:48.998Z</time></trkpt><trkpt lat="41.08560560062896" lon="9.387853261013031"><ele>73.19999999999999</ele><time>2026-03-25T17:24:49.998Z</time></trkpt><trkpt lat="41.08556584548904" lon="9.38774778805705"><ele>70.6</ele><time>2026-03-25T17:24:50.998Z</time></trkpt><trkpt lat="41.085517884061076" lon="9.387654501324718"><ele>68.0</ele><time>2026-03-25T17:24:51.998Z</time></trkpt><trkpt lat="41.08551556573292" lon="9.387497236289654"><ele>68.0</ele><time>2026-03-25T17:24:53.998Z</time></trkpt><trkpt lat="41.08555230648411" lon="9.387404431381812"><ele>68.0</ele><time>2026-03-25T17:24:54.998Z</time></trkpt><trkpt lat="41.0855931670978" lon="9.387336003117733"><ele>68.0</ele><time>2026-03-25T17:24:55.998Z</time></trkpt><trkpt lat="41.08561482270585" lon="9.387227246696298"><ele>68.0</ele><time>2026-03-25T17:24:57.998Z</time></trkpt><trkpt lat="41.08558809179366" lon="9.387135810140286"><ele>68.0</ele><time>2026-03-25T17:24:59.998Z</time></trkpt><trkpt lat="41.08550833517914" lon="9.387056742019574"><ele>68.0</ele><time>2026-03-25T17:25:01.998Z</time></trkpt><trkpt lat="41.08543956786939" lon="9.386958409273344"><ele>67.16666666666667</ele><time>2026-03-25T17:25:03.998Z</time></trkpt><trkpt lat="41.08539505034363" lon="9.386857655302077"><ele>66.33333333333334</ele><time>2026-03-25T17:25:05.998Z</time></trkpt><trkpt lat="41.08535845792834" lon="9.386781114013802"><ele>65.5</ele><time>2026-03-25T17:25:07.998Z</time></trkpt><trkpt lat="41.08535892242535" lon="9.38665470387606"><ele>64.66666666666667</ele><time>2026-03-25T17:25:10.998Z</time></trkpt><trkpt lat="41.085322940225375" lon="9.386546837583856"><ele>63.833333333333336</ele><time>2026-03-25T17:25:12.998Z</time></trkpt><trkpt lat="41.0852892086244" lon="9.386435121107429"><ele>63.0</ele><time>2026-03-25T17:25:15.998Z</time></trkpt><trkpt lat="41.08525139978287" lon="9.386364889142543"><ele>62.714285714285715</ele><time>2026-03-25T17:25:17.998Z</time></trkpt><trkpt lat="41.08520419715315" lon="9.386302986673085"><ele>62.42857142857143</ele><time>2026-03-25T17:25:20.998Z</time></trkpt><trkpt lat="41.08515763003694" lon="9.386238578755618"><ele>62.14285714285714</ele><time>2026-03-25T17:25:22.998Z</time></trkpt><trkpt lat="41.08510524582024" lon="9.386187481448703"><ele>61.857142857142854</ele><time>2026-03-25T17:25:24.998Z</time></trkpt><trkpt lat="41.08503266961682" lon="9.386107912345713"><ele>61.57142857142857</ele><time>2026-03-25T17:25:27.998Z</time></trkpt><trkpt lat="41.08497494429007" lon="9.38605844327783"><ele>61.28571428571428</ele><time>2026-03-25T17:25:30.998Z</time></trkpt><trkpt lat="41.084912497518836" lon="9.38598265577953"><ele>60.99999999999999</ele><time>2026-03-25T17:25:33.999Z</time></trkpt><trkpt lat="41.08485117193867" lon="9.385919463206898"><ele>61.0</ele><time>2026-03-25T17:25:37.998Z</time></trkpt></trkseg></trk></gpx>